Time;durP1;ratioP1;P1;durP2;ratioP2;P2;SDS_P1;SDS_P2;PMS_P1;PMS_P2;Temp;Humidity;BMP_temperature;BMP_pressure;BME280_temperature;BME280_humidity;BME280_pressure;Samples;Min_cycle;Max_cycle;Signal;HPM_P1;HPM_P2
2022/03/15 00:02:05;;;;;;;106.35;47.65;;;3.00;97.20;;;;;;5101267;28;20052;-45
2022/03/15 00:04:32;;;;;;;59.50;28.77;;;;;;;;;;5053492;28;20025;-45
2022/03/15 00:06:58;;;;;;;31.90;18.88;;;;;;;;;;5053535;28;20025;-45
2022/03/15 00:09:25;;;;;;;33.50;16.67;;;;;;;;;;5053100;28;20045;-45
2022/03/15 00:11:52;;;;;;;161.07;58.58;;;4.30;99.90;;;;;;5053252;28;20032;-45
2022/03/15 00:14:19;;;;;;;246.40;80.43;;;4.50;99.90;;;;;;5053020;28;20033;-45
2022/03/15 00:16:45;;;;;;;141.55;57.28;;;4.60;98.40;;;;;;5053257;28;20036;-45
2022/03/15 00:19:11;;;;;;;55.47;27.67;;;4.80;97.20;;;;;;5053030;28;20037;-45
2022/03/15 00:21:38;;;;;;;38.65;21.45;;;;;;;;;;5051426;28;20490;-45
2022/03/15 00:24:06;;;;;;;47.15;23.55;;;5.00;99.90;;;;;;5053046;28;20111;-45
2022/03/15 00:26:32;;;;;;;45.38;23.48;;;5.30;99.90;;;;;;5052868;28;20025;-45
2022/03/15 00:28:58;;;;;;;81.05;32.58;;;5.40;99.90;;;;;;5052905;28;20555;-45
2022/03/15 00:31:24;;;;;;;98.80;40.33;;;5.50;98.30;;;;;;5101327;28;20037;-45
2022/03/15 00:33:50;;;;;;;48.83;25.20;;;5.50;99.20;;;;;;5067888;28;20060;-45
2022/03/15 00:36:15;;;;;;;64.22;28.77;;;5.50;99.90;;;;;;5052844;28;20028;-45
2022/03/15 00:38:41;;;;;;;66.32;31.13;;;5.50;98.70;;;;;;5067685;28;20119;-45
2022/03/15 00:41:10;;;;;;;99.00;44.17;;;5.60;98.60;;;;;;5052835;28;20096;-45
2022/03/15 00:43:36;;;;;;;134.55;61.50;;;5.60;96.90;;;;;;5051163;28;20366;-45
2022/03/15 00:46:02;;;;;;;88.75;42.10;;;5.60;96.60;;;;;;5053277;28;20039;-45
2022/03/15 00:48:28;;;;;;;118.47;51.78;;;5.60;96.40;;;;;;5071444;28;20041;-45
2022/03/15 00:50:54;;;;;;;117.47;53.28;;;5.70;96.40;;;;;;5056526;28;20392;-45
2022/03/15 00:53:20;;;;;;;170.95;74.55;;;5.70;96.10;;;;;;5056375;28;20099;-45
2022/03/15 00:55:47;;;;;;;155.93;73.28;;;5.70;96.30;;;;;;5056502;28;20083;-45
2022/03/15 00:58:12;;;;;;;144.70;74.22;;;5.70;95.80;;;;;;5056464;28;20033;-45
2022/03/15 01:00:39;;;;;;;150.25;76.20;;;5.80;95.40;;;;;;5054770;28;20143;-45
2022/03/15 01:03:05;;;;;;;132.45;67.80;;;5.70;95.60;;;;;;5056242;28;20029;-45
2022/03/15 01:05:31;;;;;;;70.10;39.83;;;5.80;95.50;;;;;;5056302;28;20025;-45
2022/03/15 01:07:57;;;;;;;62.97;34.25;;;5.80;95.80;;;;;;5054538;28;20037;-45
2022/03/15 01:10:23;;;;;;;49.55;28.55;;;5.60;96.10;;;;;;5055959;28;20055;-46
2022/03/15 01:12:49;;;;;;;53.33;30.95;;;5.50;96.20;;;;;;5071424;28;20037;-45
2022/03/15 01:15:15;;;;;;;48.30;27.27;;;5.50;96.00;;;;;;5070785;28;20037;-45
2022/03/15 01:17:41;;;;;;;37.35;23.73;;;5.60;95.90;;;;;;5054416;28;20033;-45
2022/03/15 01:20:09;;;;;;;30.92;17.00;;;5.60;95.90;;;;;;5056067;28;20087;-45
2022/03/15 01:22:35;;;;;;;28.20;16.35;;;5.70;95.50;;;;;;5104428;28;20068;-45
2022/03/15 01:25:00;;;;;;;26.38;16.83;;;5.70;95.40;;;;;;5056031;28;20053;-45
2022/03/15 01:27:26;;;;;;;24.45;16.33;;;5.70;95.30;;;;;;5055835;28;20056;-46
2022/03/15 01:29:52;;;;;;;27.30;16.75;;;5.70;95.30;;;;;;5055812;28;20037;-45
2022/03/15 01:32:20;;;;;;;26.88;18.25;;;5.70;95.30;;;;;;5104267;28;20408;-45
2022/03/15 01:34:46;;;;;;;31.25;17.98;;;5.60;95.50;;;;;;5055676;28;20465;-45
2022/03/15 01:37:11;;;;;;;29.80;17.33;;;5.70;95.30;;;;;;5055607;28;20056;-45
2022/03/15 01:39:37;;;;;;;45.15;26.10;;;5.70;95.20;;;;;;5055349;28;20108;-45
2022/03/15 01:42:03;;;;;;;72.80;35.33;;;5.50;95.20;;;;;;5104232;28;20044;-45
2022/03/15 01:44:33;;;;;;;41.17;24.45;;;5.30;95.60;;;;;;5055485;28;20490;-45
2022/03/15 01:46:59;;;;;;;32.97;20.38;;;5.00;96.20;;;;;;5055556;28;20044;-45
2022/03/15 01:49:25;;;;;;;34.65;19.63;;;4.80;96.80;;;;;;5055286;28;20036;-46
2022/03/15 01:51:51;;;;;;;32.63;18.23;;;4.80;97.20;;;;;;5055694;28;20029;-45
2022/03/15 01:54:20;;;;;;;29.08;19.27;;;4.70;97.20;;;;;;5104223;28;20532;-45
2022/03/15 01:56:46;;;;;;;30.70;19.83;;;4.60;97.50;;;;;;5054470;28;20037;-45
2022/03/15 01:59:13;;;;;;;32.75;20.80;;;4.50;97.40;;;;;;5055290;28;20492;-45
2022/03/15 02:01:41;;;;;;;34.47;21.65;;;4.30;97.30;;;;;;5055519;28;20056;-45
2022/03/15 02:04:07;;;;;;;31.75;20.40;;;4.20;97.80;;;;;;5055361;28;20451;-45
2022/03/15 02:06:41;;;;;;;33.85;20.38;;;4.40;97.60;;;;;;5054935;28;20032;-45
2022/03/15 02:09:09;;;;;;;28.65;19.25;;;4.40;97.80;;;;;;5055245;28;20123;-45
2022/03/15 02:11:35;;;;;;;28.45;18.75;;;4.40;97.90;;;;;;5055413;28;20116;-44
2022/03/15 02:14:02;;;;;;;30.10;18.55;;;4.10;98.20;;;;;;5113453;28;20063;-45
2022/03/15 02:16:28;;;;;;;33.05;17.88;;;4.00;98.80;;;;;;5113504;28;20551;-45
2022/03/15 02:18:55;;;;;;;28.42;18.75;;;;;;;;;;5113574;28;20114;-45
2022/03/15 02:21:21;;;;;;;28.73;18.83;;;3.90;94.50;;;;;;5113594;28;20032;-45
2022/03/15 02:23:47;;;;;;;30.88;18.70;;;4.00;94.40;;;;;;5112603;28;20031;-45
2022/03/15 02:26:13;;;;;;;29.35;17.77;;;4.20;94.30;;;;;;5113149;28;20119;-45
2022/03/15 02:28:39;;;;;;;30.98;19.08;;;4.30;94.10;;;;;;5113055;28;20115;-45
2022/03/15 02:31:06;;;;;;;29.52;17.90;;;4.30;93.80;;;;;;5113054;28;20451;-45
2022/03/15 02:33:31;;;;;;;27.05;19.00;;;4.50;93.40;;;;;;5079294;28;20047;-45
2022/03/15 02:35:57;;;;;;;29.10;17.35;;;4.60;93.20;;;;;;5113109;28;20024;-45
2022/03/15 02:38:23;;;;;;;27.00;17.95;;;4.70;93.10;;;;;;5045780;28;20031;-45
2022/03/15 02:40:49;;;;;;;22.08;14.90;;;4.50;92.80;;;;;;5112929;28;20079;-45
2022/03/15 02:43:15;;;;;;;20.65;14.25;;;4.40;93.00;;;;;;5112924;28;20027;-45
2022/03/15 02:45:41;;;;;;;39.70;24.65;;;4.40;93.10;;;;;;5032030;28;20045;-45
2022/03/15 02:48:06;;;;;;;26.70;17.08;;;4.60;93.30;;;;;;5102910;28;20102;-45
2022/03/15 02:50:32;;;;;;;44.55;26.42;;;4.60;93.10;;;;;;5052610;28;20044;-45
2022/03/15 02:52:58;;;;;;;43.83;24.88;;;4.70;93.10;;;;;;5103000;28;20033;-45
2022/03/15 02:55:24;;;;;;;32.13;20.35;;;4.70;93.10;;;;;;5102680;28;20123;-45
2022/03/15 02:57:50;;;;;;;21.13;14.43;;;4.60;93.00;;;;;;5053964;28;20488;-45
2022/03/15 03:00:17;;;;;;;22.85;13.65;;;4.20;93.40;;;;;;5102142;28;20029;-45
2022/03/15 03:02:43;;;;;;;25.63;15.68;;;4.10;94.00;;;;;;5053943;28;20453;-45
2022/03/15 03:05:09;;;;;;;27.08;17.33;;;4.10;94.00;;;;;;5053988;28;20036;-45
2022/03/15 03:07:35;;;;;;;27.45;17.63;;;4.20;93.90;;;;;;5102664;28;20033;-46
2022/03/15 03:10:02;;;;;;;25.92;17.10;;;3.90;94.90;;;;;;5053977;28;20439;-45
2022/03/15 03:12:29;;;;;;;23.45;16.17;;;3.80;95.30;;;;;;5054662;28;20033;-45
2022/03/15 03:14:55;;;;;;;24.65;15.82;;;3.50;98.00;;;;;;5054264;28;20033;-45
2022/03/15 03:17:23;;;;;;;31.83;19.42;;;3.40;98.30;;;;;;5054842;28;20119;-45
2022/03/15 03:19:48;;;;;;;34.40;19.88;;;3.40;98.10;;;;;;5102129;28;20044;-45
2022/03/15 03:22:15;;;;;;;36.75;23.25;;;;;;;;;;5103155;28;20037;-45
2022/03/15 03:24:42;;;;;;;29.00;17.75;;;2.80;97.90;;;;;;5053804;28;20179;-45
2022/03/15 03:27:13;;;;;;;21.23;13.93;;;2.70;98.10;;;;;;5053957;28;20025;-45
2022/03/15 03:29:42;;;;;;;21.88;13.38;;;2.80;98.10;;;;;;5053462;28;20029;-45
2022/03/15 03:32:09;;;;;;;18.80;11.90;;;2.90;98.20;;;;;;5053507;28;20049;-45
2022/03/15 03:34:35;;;;;;;19.90;13.20;;;2.70;98.50;;;;;;5067854;28;20040;-45
2022/03/15 03:37:01;;;;;;;20.05;12.55;;;2.10;99.80;;;;;;5068647;28;20041;-45
2022/03/15 03:39:26;;;;;;;18.50;12.40;;;2.00;99.90;;;;;;5068463;28;20473;-44
2022/03/15 03:41:52;;;;;;;18.95;12.50;;;2.00;99.90;;;;;;5053446;28;20485;-45
2022/03/15 03:44:18;;;;;;;18.40;12.13;;;1.90;99.90;;;;;;5053624;28;20115;-45
2022/03/15 03:46:45;;;;;;;24.23;13.52;;;2.00;99.90;;;;;;5034891;28;20043;-45
2022/03/15 03:49:11;;;;;;;21.35;13.63;;;2.20;99.90;;;;;;5053747;28;20447;-45
2022/03/15 03:51:37;;;;;;;21.15;13.30;;;2.60;99.90;;;;;;5102101;28;20127;-45
2022/03/15 03:54:03;;;;;;;27.15;16.02;;;2.90;99.40;;;;;;5053322;28;20056;-45
2022/03/15 03:56:29;;;;;;;24.15;14.63;;;3.10;98.60;;;;;;5053329;28;20041;-45
2022/03/15 03:58:54;;;;;;;22.00;14.07;;;3.30;98.10;;;;;;5053200;28;20079;-45
2022/03/15 04:01:20;;;;;;;21.65;12.57;;;3.50;97.60;;;;;;5101886;28;20037;-45
2022/03/15 04:03:46;;;;;;;37.33;22.73;;;3.50;97.10;;;;;;5053278;28;20025;-45
2022/03/15 04:06:13;;;;;;;31.48;17.83;;;3.40;96.90;;;;;;5101836;28;20115;-45
2022/03/15 04:08:39;;;;;;;39.92;20.80;;;3.50;97.30;;;;;;5053401;28;20057;-45
2022/03/15 04:11:05;;;;;;;34.42;20.45;;;3.60;97.10;;;;;;5053376;28;20445;-58
2022/03/15 04:13:32;;;;;;;27.00;15.77;;;;;;;;;;5101653;28;20037;-45
2022/03/15 04:15:57;;;;;;;25.58;14.00;;;4.00;97.50;;;;;;5084044;28;20128;-45
2022/03/15 04:18:23;;;;;;;19.67;14.00;;;3.10;99.90;;;;;;5053348;28;20072;-45
2022/03/15 04:20:49;;;;;;;18.33;11.52;;;2.60;98.60;;;;;;5055277;28;20044;-45
2022/03/15 04:23:15;;;;;;;19.48;11.75;;;2.20;99.90;;;;;;5105574;28;20060;-45
2022/03/15 04:25:41;;;;;;;17.33;12.10;;;1.90;99.90;;;;;;5105334;28;20473;-44
2022/03/15 04:28:08;;;;;;;20.15;11.15;;;1.90;99.90;;;;;;5055376;28;20029;-45
2022/03/15 04:30:34;;;;;;;20.98;9.60;;;1.80;99.90;;;;;;5071270;28;20485;-45
2022/03/15 04:33:02;;;;;;;10.73;6.75;;;1.70;99.90;;;;;;5054920;28;20087;-45
2022/03/15 04:35:29;;;;;;;14.25;8.80;;;1.40;99.90;;;;;;5056880;28;20495;-45
2022/03/15 04:37:56;;;;;;;15.82;8.68;;;1.30;99.90;;;;;;5056860;28;20036;-45
2022/03/15 04:40:22;;;;;;;21.38;12.45;;;1.10;99.90;;;;;;5056718;28;20033;-45
2022/03/15 04:42:52;;;;;;;24.95;12.98;;;1.10;99.90;;;;;;5055108;28;20044;-45
2022/03/15 04:45:19;;;;;;;20.25;12.63;;;1.10;99.90;;;;;;5103564;28;20041;-45
2022/03/15 04:47:46;;;;;;;20.73;13.55;;;1.10;99.90;;;;;;5056579;28;20174;-44
2022/03/15 04:50:12;;;;;;;28.35;14.48;;;1.30;99.90;;;;;;5056353;28;20080;-45
2022/03/15 04:52:38;;;;;;;20.75;13.35;;;1.50;99.90;;;;;;5054855;28;20490;-45
2022/03/15 04:55:06;;;;;;;18.58;10.80;;;1.60;99.90;;;;;;5056228;28;20035;-45
2022/03/15 04:57:32;;;;;;;15.55;10.07;;;1.60;99.90;;;;;;5105126;28;20041;-45
2022/03/15 04:59:59;;;;;;;13.57;9.57;;;1.60;99.90;;;;;;5056251;28;20060;-45
2022/03/15 05:02:24;;;;;;;10.90;6.60;;;1.50;99.90;;;;;;5104941;28;20115;-45
2022/03/15 05:04:51;;;;;;;12.90;8.55;;;1.40;99.90;;;;;;5056250;28;20078;-45
2022/03/15 05:07:18;;;;;;;12.65;8.27;;;1.40;99.90;;;;;;5104966;28;20128;-45
2022/03/15 05:12:28;;;;;;;14.93;8.75;;;1.30;99.90;;;;;;5097698;28;20056;-45
2022/03/15 05:14:54;;;;;;;12.95;8.40;;;1.30;99.90;;;;;;5055914;28;20389;-45
2022/03/15 05:17:20;;;;;;;15.27;9.75;;;1.50;99.90;;;;;;5104545;28;20103;-45
2022/03/15 05:19:49;;;;;;;20.63;11.63;;;1.80;99.90;;;;;;5104632;28;20044;-45
2022/03/15 05:22:16;;;;;;;19.67;13.82;;;;;;;;;;5104660;28;20446;-45
2022/03/15 05:24:42;;;;;;;20.70;12.52;;;2.40;99.90;;;;;;5055975;28;20420;-45
2022/03/15 05:27:09;;;;;;;16.67;11.45;;;;;;;;;;5056271;28;20025;-45
2022/03/15 05:29:36;;;;;;;16.45;10.55;;;2.80;99.90;;;;;;5103851;28;20043;-45
2022/03/15 05:32:01;;;;;;;37.67;20.45;;;2.90;99.90;;;;;;5036220;28;20144;-45
2022/03/15 05:34:27;;;;;;;44.03;26.15;;;3.20;99.90;;;;;;5050718;28;20144;-45
2022/03/15 05:36:53;;;;;;;27.13;19.98;;;3.40;99.90;;;;;;5035944;28;20075;-45
2022/03/15 05:39:19;;;;;;;26.63;18.20;;;3.70;99.90;;;;;;5036343;28;20474;-45
2022/03/15 05:41:45;;;;;;;25.83;17.60;;;;;;;;;;5067366;28;20436;-45
2022/03/15 05:44:12;;;;;;;29.42;15.65;;;;;;;;;;5066986;28;20040;-45
2022/03/15 05:46:38;;;;;;;24.33;15.77;;;4.30;99.90;;;;;;5066830;28;20041;-46
2022/03/15 05:49:04;;;;;;;22.77;15.43;;;4.30;99.90;;;;;;5066874;28;20113;-46
2022/03/15 05:51:30;;;;;;;23.92;14.80;;;4.40;99.90;;;;;;5035598;28;20124;-46
2022/03/15 05:53:55;;;;;;;21.13;14.50;;;4.40;99.90;;;;;;5035882;28;20075;-45
2022/03/15 05:56:21;;;;;;;30.38;19.02;;;4.60;99.90;;;;;;5035846;28;20481;-45
2022/03/15 05:58:48;;;;;;;35.15;19.48;;;;;;;;;;5035350;28;20074;-46
2022/03/15 06:01:14;;;;;;;103.72;29.90;;;4.90;99.80;;;;;;5050266;28;20034;-46
2022/03/15 06:03:40;;;;;;;57.15;27.33;;;5.00;99.90;;;;;;5035480;28;20029;-45
2022/03/15 06:06:06;;;;;;;39.45;22.50;;;5.10;99.80;;;;;;5035106;28;20477;-45
2022/03/15 06:08:32;;;;;;;30.15;18.55;;;4.90;99.90;;;;;;5035177;28;20107;-45
2022/03/15 06:11:00;;;;;;;48.88;24.15;;;4.80;99.90;;;;;;5035102;28;20041;-46
2022/03/15 06:13:26;;;;;;;48.67;29.73;;;5.10;99.90;;;;;;5035187;28;20401;-46
2022/03/15 06:15:51;;;;;;;52.40;32.42;;;5.20;99.40;;;;;;5035076;28;20032;-46
2022/03/15 06:18:17;;;;;;;48.10;29.23;;;5.40;99.10;;;;;;5033729;28;20383;-47
2022/03/15 06:20:43;;;;;;;52.38;32.22;;;5.40;98.60;;;;;;5034853;28;20428;-45
2022/03/15 06:23:09;;;;;;;50.92;31.13;;;5.40;98.70;;;;;;5033187;28;20121;-46
2022/03/15 06:25:34;;;;;;;60.85;35.42;;;5.40;98.90;;;;;;5033119;28;20125;-45
2022/03/15 06:28:00;;;;;;;71.25;37.35;;;5.60;99.20;;;;;;5032398;28;20045;-45
2022/03/15 06:30:27;;;;;;;75.55;41.42;;;5.70;99.00;;;;;;5065911;28;20045;-46
2022/03/15 06:32:53;;;;;;;177.68;86.55;;;6.00;98.80;;;;;;5034444;28;20502;-45
2022/03/15 06:35:19;;;;;;;151.70;79.68;;;;;;;;;;5034654;28;20056;-45
2022/03/15 06:37:46;;;;;;;84.60;47.63;;;;;;;;;;5034048;28;20033;-45
2022/03/15 06:40:14;;;;;;;93.65;56.53;;;6.90;99.90;;;;;;5033769;28;20436;-46
2022/03/15 06:42:40;;;;;;;70.40;47.28;;;7.00;98.80;;;;;;5033734;28;20378;-45
2022/03/15 06:45:07;;;;;;;66.45;41.55;;;;;;;;;;5045188;28;20091;-46
2022/03/15 06:47:34;;;;;;;48.58;32.60;;;;;;;;;;5029618;28;20455;-45
2022/03/15 06:50:00;;;;;;;35.80;25.92;;;7.70;99.90;;;;;;5014678;28;20397;-46
2022/03/15 06:52:26;;;;;;;35.88;22.73;;;;;;;;;;5027914;28;20052;-43
2022/03/15 06:54:52;;;;;;;38.67;25.77;;;;;;;;;;5065743;28;20046;-44
2022/03/15 06:57:18;;;;;;;40.97;26.90;;;8.10;99.90;;;;;;5049076;28;20070;-44
2022/03/15 06:59:44;;;;;;;40.22;26.77;;;;;;;;;;5034656;28;20473;-44
2022/03/15 07:02:11;;;;;;;40.30;27.23;;;;;;;;;;5065460;28;20127;-44
2022/03/15 07:04:37;;;;;;;38.10;26.50;;;;;;;;;;5065275;28;20489;-44
2022/03/15 07:07:03;;;;;;;35.78;23.98;;;;;;;;;;5034389;28;20103;-44
2022/03/15 07:09:29;;;;;;;32.05;20.48;;;10.00;94.50;;;;;;5048807;28;20136;-44
2022/03/15 07:11:55;;;;;;;23.85;17.67;;;10.30;99.90;;;;;;5065524;28;20556;-44
2022/03/15 07:14:21;;;;;;;26.17;17.83;;;10.80;99.90;;;;;;5033909;28;20029;-44
2022/03/15 07:16:47;;;;;;;27.35;17.75;;;;;;;;;;5049227;28;20034;-44
2022/03/15 07:19:13;;;;;;;24.45;18.15;;;11.90;90.70;;;;;;5065217;28;20045;-44
2022/03/15 07:21:39;;;;;;;31.85;21.08;;;12.00;90.60;;;;;;5065258;28;20045;-44
2022/03/15 07:24:05;;;;;;;28.05;20.98;;;;;;;;;;5065346;28;20068;-44
2022/03/15 07:26:32;;;;;;;31.67;22.25;;;12.30;96.00;;;;;;5034116;28;20380;-44
2022/03/15 07:28:58;;;;;;;34.08;22.63;;;;;;;;;;5049264;28;20508;-44
2022/03/15 07:31:24;;;;;;;34.00;21.05;;;12.50;89.10;;;;;;5033775;28;20033;-44
2022/03/15 07:33:50;;;;;;;34.35;23.77;;;12.70;90.50;;;;;;5033699;28;20079;-44
2022/03/15 07:36:18;;;;;;;41.92;27.23;;;13.00;90.60;;;;;;5033543;28;20025;-44
2022/03/15 07:38:44;;;;;;;32.20;23.73;;;;;;;;;;5033591;28;20555;-44
2022/03/15 07:41:10;;;;;;;26.40;19.48;;;;;;;;;;5034074;28;20024;-44
2022/03/15 07:43:37;;;;;;;28.83;18.73;;;;;;;;;;5033431;28;20037;-44
2022/03/15 07:46:03;;;;;;;30.65;20.20;;;13.90;85.80;;;;;;5033508;28;20033;-44
2022/03/15 07:48:29;;;;;;;35.45;21.50;;;14.30;90.30;;;;;;5033500;28;20032;-44
2022/03/15 07:50:55;;;;;;;32.08;22.13;;;14.70;84.30;;;;;;5064880;28;20397;-45
2022/03/15 08:15:48;;;;;;;43.38;28.90;;;;;;;;;;5104898;27;20890;-44
2022/03/15 08:18:14;;;;;;;54.65;32.78;;;18.60;73.10;;;;;;5098671;28;20048;-45
2022/03/15 08:20:41;;;;;;;47.50;32.50;;;17.60;73.70;;;;;;5082304;28;20475;-44
2022/03/15 08:23:10;;;;;;;52.45;35.53;;;18.00;72.90;;;;;;5074184;28;20029;-44
2022/03/15 08:25:37;;;;;;;56.17;38.67;;;17.60;74.70;;;;;;5085764;28;20040;-44
2022/03/15 08:28:03;;;;;;;58.38;40.88;;;18.40;74.60;;;;;;5080490;28;20031;-45
2022/03/15 08:30:29;;;;;;;63.83;43.80;;;19.00;73.50;;;;;;5064540;28;20090;-45
2022/03/15 08:32:55;;;;;;;75.50;51.35;;;19.50;71.40;;;;;;5073297;28;20044;-45
2022/03/15 08:35:21;;;;;;;73.20;49.78;;;19.80;71.20;;;;;;5086316;28;20036;-44
2022/03/15 08:37:50;;;;;;;67.63;46.63;;;20.20;70.30;;;;;;5083706;28;20029;-44
2022/03/15 08:40:21;;;;;;;69.32;45.92;;;20.30;71.10;;;;;;5081038;28;20040;-45
2022/03/15 08:42:48;;;;;;;71.93;48.77;;;;;;;;;;5084133;28;20039;-44
2022/03/15 08:45:14;;;;;;;71.68;47.10;;;20.50;84.20;;;;;;5082297;28;20049;-45
2022/03/15 08:47:40;;;;;;;52.63;39.75;;;21.00;96.10;;;;;;5084195;28;20028;-45
2022/03/15 08:50:07;;;;;;;55.47;40.65;;;21.10;81.90;;;;;;5081709;28;20035;-44
2022/03/15 08:52:33;;;;;;;56.13;37.33;;;21.30;80.60;;;;;;5084474;28;20038;-45
2022/03/15 08:55:00;;;;;;;51.72;36.22;;;20.80;78.00;;;;;;5102680;28;20040;-45
2022/03/15 08:57:25;;;;;;;43.13;34.13;;;21.10;77.20;;;;;;5079203;28;20078;-45
2022/03/15 08:59:51;;;;;;;47.75;34.70;;;21.70;77.20;;;;;;5081842;28;20032;-45
2022/03/15 09:02:17;;;;;;;44.88;34.78;;;21.80;68.50;;;;;;5083136;28;20039;-45
2022/03/15 09:04:44;;;;;;;55.00;37.50;;;;;;;;;;5066377;28;20036;-45
2022/03/15 09:07:10;;;;;;;51.13;37.45;;;22.40;66.30;;;;;;5083442;28;20037;-45
2022/03/15 09:09:37;;;;;;;44.80;31.17;;;22.30;66.00;;;;;;5065402;28;20042;-45
2022/03/15 09:12:03;;;;;;;77.40;59.60;;;21.80;64.80;;;;;;5082560;28;20115;-45
2022/03/15 09:14:30;;;;;;;37.75;30.55;;;;;;;;;;5084357;28;20056;-44
2022/03/15 09:16:55;;;;;;;38.03;28.38;;;22.60;65.40;;;;;;5066803;28;20226;-44
2022/03/15 09:19:21;;;;;;;32.30;25.00;;;;;;;;;;5072706;28;20151;-44
2022/03/15 09:21:47;;;;;;;34.13;27.10;;;22.80;65.20;;;;;;5069784;28;20033;-44
2022/03/15 09:24:13;;;;;;;30.58;25.30;;;;;;;;;;5072444;28;20074;-44
2022/03/15 09:26:43;;;;;;;26.83;22.65;;;;;;;;;;5064827;28;20071;-44
2022/03/15 09:29:10;;;;;;;32.60;24.50;;;26.00;76.30;;;;;;5071141;28;20048;-44
2022/03/15 09:31:36;;;;;;;30.83;23.02;;;23.80;62.90;;;;;;5072813;28;20028;-45
2022/03/15 09:34:02;;;;;;;33.67;24.27;;;23.80;62.40;;;;;;5068557;28;20024;-45
2022/03/15 09:36:28;;;;;;;28.65;23.95;;;23.70;62.90;;;;;;5052994;28;20360;-44
2022/03/15 09:38:57;;;;;;;32.70;25.48;;;23.00;63.00;;;;;;5072564;28;20036;-45
2022/03/15 09:41:26;;;;;;;32.03;24.63;;;23.00;62.40;;;;;;5070700;28;20055;-45
2022/03/15 09:43:53;;;;;;;32.72;24.90;;;;;;;;;;5070681;28;20064;-44
2022/03/15 09:46:21;;;;;;;37.25;27.98;;;;;;;;;;5061123;28;20036;-45
2022/03/15 09:48:52;;;;;;;33.83;26.42;;;23.70;62.00;;;;;;5073867;28;20048;-44
2022/03/15 09:51:18;;;;;;;29.38;24.08;;;;;;;;;;5067240;28;20032;-44
2022/03/15 09:53:44;;;;;;;30.65;24.00;;;24.40;60.70;;;;;;5072231;28;20028;-44
2022/03/15 09:56:13;;;;;;;29.27;22.98;;;24.50;60.90;;;;;;5073735;28;20078;-44
2022/03/15 09:58:39;;;;;;;29.13;23.17;;;24.60;61.90;;;;;;5067393;28;20086;-44
2022/03/15 10:01:05;;;;;;;31.23;21.98;;;25.00;62.30;;;;;;5072977;28;20028;-45
2022/03/15 10:03:31;;;;;;;25.98;20.60;;;24.60;61.00;;;;;;5057227;28;20044;-44
2022/03/15 10:05:57;;;;;;;25.70;19.88;;;24.70;61.90;;;;;;5038909;28;20415;-44
2022/03/15 10:08:23;;;;;;;23.48;17.27;;;;;;;;;;5069695;28;20040;-44
2022/03/15 10:10:51;;;;;;;21.98;16.92;;;24.00;60.90;;;;;;5063203;28;20028;-45
2022/03/15 10:13:17;;;;;;;23.55;19.45;;;24.30;62.10;;;;;;5069797;28;20098;-44
2022/03/15 10:15:59;;;;;;;24.52;18.58;;;24.20;62.90;;;;;;5073488;28;20048;-44
2022/03/15 10:18:25;;;;;;;24.35;18.23;;;;;;;;;;5059246;28;20075;-44
2022/03/15 10:20:51;;;;;;;21.38;17.15;;;25.10;94.40;;;;;;5070911;28;20104;-44
2022/03/15 10:23:19;;;;;;;23.25;16.95;;;24.70;64.70;;;;;;5087361;28;20044;-44
2022/03/15 10:25:51;;;;;;;21.02;16.88;;;24.90;66.00;;;;;;5061260;28;20536;-44
2022/03/15 10:28:18;;;;;;;20.02;15.43;;;;;;;;;;5066588;28;20028;-45
2022/03/15 10:30:45;;;;;;;21.73;15.50;;;25.20;94.30;;;;;;5069617;28;20036;-44
2022/03/15 10:33:12;;;;;;;18.65;13.57;;;24.90;59.20;;;;;;5072482;28;20031;-45
2022/03/15 10:35:43;;;;;;;21.80;18.48;;;23.50;59.20;;;;;;5065896;28;20036;-45
2022/03/15 10:38:10;;;;;;;19.58;14.27;;;23.20;60.40;;;;;;5072382;28;20031;-44
2022/03/15 10:40:45;;;;;;;18.17;13.25;;;23.20;61.10;;;;;;5047022;28;20556;-45
2022/03/15 10:43:17;;;;;;;15.40;12.20;;;23.20;60.80;;;;;;5061941;28;20021;-44
2022/03/15 10:45:47;;;;;;;15.27;11.80;;;23.20;61.60;;;;;;5069002;28;20035;-44
2022/03/15 10:48:22;;;;;;;36.40;26.30;;;24.20;60.80;;;;;;5071810;28;20403;-44
2022/03/15 10:51:00;;;;;;;15.82;10.55;;;24.10;58.60;;;;;;5059228;28;20041;-45
2022/03/15 10:53:36;;;;;;;13.73;9.73;;;24.60;59.60;;;;;;5064461;28;20036;-44
2022/03/15 10:56:19;;;;;;;11.18;9.00;;;;;;;;;;5071651;28;20067;-45
2022/03/15 10:58:45;;;;;;;14.77;10.20;;;24.60;57.80;;;;;;5071260;28;20051;-44
2022/03/15 11:01:13;;;;;;;13.07;9.63;;;23.80;57.70;;;;;;5054251;28;20472;-45
2022/03/15 11:03:39;;;;;;;12.40;9.77;;;24.20;59.40;;;;;;5071092;28;20066;-44
2022/03/15 11:06:08;;;;;;;12.95;9.25;;;24.20;58.50;;;;;;5037863;28;20127;-44
2022/03/15 11:08:36;;;;;;;10.07;9.07;;;24.50;59.10;;;;;;5071871;28;20040;-44
2022/03/15 11:11:06;;;;;;;12.75;8.55;;;23.90;57.90;;;;;;5071958;28;20112;-44
2022/03/15 11:13:32;;;;;;;39.20;34.25;;;23.90;59.00;;;;;;5071663;28;20102;-44
2022/03/15 11:15:59;;;;;;;12.40;9.77;;;24.00;59.10;;;;;;5071837;28;20407;-44
2022/03/15 11:18:29;;;;;;;12.05;8.45;;;23.40;58.40;;;;;;5071811;28;20037;-45
2022/03/15 11:20:57;;;;;;;13.35;8.82;;;22.60;58.00;;;;;;5071843;28;20039;-44
2022/03/15 11:23:23;;;;;;;10.02;7.82;;;22.80;58.50;;;;;;5071830;28;20048;-44
2022/03/15 11:25:56;;;;;;;11.77;8.68;;;22.90;57.80;;;;;;5072041;28;20032;-44
2022/03/15 11:28:30;;;;;;;8.50;7.53;;;22.50;57.60;;;;;;5088865;28;20048;-44
2022/03/15 11:30:57;;;;;;;9.32;7.75;;;22.70;57.80;;;;;;5073955;28;20107;-44
2022/03/15 11:33:24;;;;;;;11.40;7.50;;;23.10;57.80;;;;;;5088934;28;20052;-44
2022/03/15 11:35:50;;;;;;;14.95;10.48;;;23.60;58.20;;;;;;5073561;28;20025;-44
2022/03/15 11:38:18;;;;;;;11.55;7.93;;;23.70;57.60;;;;;;5073214;28;20388;-45
2022/03/15 11:40:45;;;;;;;10.70;8.25;;;24.20;56.40;;;;;;5073703;28;20032;-44
2022/03/15 11:43:23;;;;;;;11.63;7.32;;;24.40;80.30;;;;;;5073940;28;20032;-44
2022/03/15 11:46:10;;;;;;;9.40;7.45;;;24.00;66.30;;;;;;5073507;28;20121;-45
2022/03/15 11:49:00;;;;;;;10.13;7.70;;;23.80;56.30;;;;;;5073393;28;20024;-45
2022/03/15 11:51:35;;;;;;;9.82;7.07;;;;;;;;;;5073372;28;20103;-44
2022/03/15 11:54:35;;;;;;;10.38;8.00;;;23.20;71.70;;;;;;5073374;28;20032;-44
2022/03/15 11:57:05;;;;;;;10.80;6.90;;;22.80;57.50;;;;;;5073918;28;20032;-44
2022/03/15 11:59:49;;;;;;;10.93;6.72;;;22.50;55.90;;;;;;5073294;28;20033;-44
2022/03/15 12:02:27;;;;;;;8.00;6.00;;;22.40;54.90;;;;;;5073470;28;20033;-44
2022/03/15 12:04:53;;;;;;;9.57;7.97;;;22.20;54.40;;;;;;5073333;28;20051;-44
2022/03/15 12:07:36;;;;;;;8.80;7.60;;;21.80;57.30;;;;;;5073410;28;20028;-42
2022/03/15 12:10:08;;;;;;;9.48;7.35;;;21.70;56.80;;;;;;5073524;28;20111;-44
2022/03/15 12:12:33;;;;;;;;;;;21.40;56.70;;;;;;5071955;28;20479;-44
2022/03/15 12:15:13;;;;;;;10.43;7.85;;;21.20;55.40;;;;;;5122295;28;19927;-43
2022/03/15 12:17:39;;;;;;;15.82;9.95;;;21.50;57.00;;;;;;5071421;28;20051;-44
2022/03/15 12:20:18;;;;;;;15.57;10.38;;;21.70;56.70;;;;;;5073212;28;20028;-44
2022/03/15 12:22:44;;;;;;;11.25;7.90;;;21.80;58.20;;;;;;5071465;28;20048;-45
2022/03/15 12:25:18;;;;;;;12.35;8.60;;;21.80;57.80;;;;;;5073274;28;20425;-42
2022/03/15 12:27:46;;;;;;;12.10;9.35;;;21.80;57.80;;;;;;5070511;28;20071;-42
2022/03/15 12:30:24;;;;;;;12.07;9.55;;;21.80;58.10;;;;;;5072288;28;20032;-42
2022/03/15 12:32:55;;;;;;;11.27;7.60;;;22.00;58.60;;;;;;5073169;28;20074;-42
2022/03/15 12:35:25;;;;;;;10.85;8.85;;;22.30;58.90;;;;;;5072523;28;20020;-45
2022/03/15 12:38:04;;;;;;;9.43;8.18;;;21.90;58.00;;;;;;5075215;28;20029;-45
2022/03/15 12:40:30;;;;;;;12.50;8.73;;;21.10;58.20;;;;;;5070121;28;20075;-42
2022/03/15 12:42:58;;;;;;;12.43;9.45;;;21.20;58.80;;;;;;5073092;28;20036;-42
2022/03/15 12:45:24;;;;;;;10.27;8.05;;;21.00;58.90;;;;;;5072894;28;20033;-45
2022/03/15 12:47:51;;;;;;;12.18;8.68;;;20.80;59.70;;;;;;5073084;28;20054;-42
2022/03/15 12:50:21;;;;;;;11.95;8.52;;;20.50;59.10;;;;;;5054471;28;20533;-45
2022/03/15 12:52:46;;;;;;;12.30;8.82;;;20.30;59.40;;;;;;5076540;28;20060;-44
2022/03/15 12:55:22;;;;;;;10.95;8.50;;;20.30;60.10;;;;;;5058202;28;20067;-45
2022/03/15 12:57:59;;;;;;;10.75;8.07;;;20.20;59.60;;;;;;5076835;28;20024;-45
2022/03/15 13:00:31;;;;;;;10.52;8.07;;;20.20;59.60;;;;;;5074622;28;20025;-45
2022/03/15 13:02:57;;;;;;;11.30;7.65;;;20.00;59.80;;;;;;5065685;28;20389;-45
2022/03/15 13:05:24;;;;;;;9.95;7.95;;;19.80;59.50;;;;;;5066888;28;20037;-45
2022/03/15 13:07:52;;;;;;;11.07;7.88;;;19.90;59.90;;;;;;5057862;28;20594;-45
2022/03/15 13:10:48;;;;;;;12.50;8.13;;;20.00;60.00;;;;;;5076059;28;20031;-44
2022/03/15 13:13:23;;;;;;;11.35;8.02;;;20.20;60.00;;;;;;5014324;28;20038;-45
2022/03/15 13:15:52;;;;;;;12.48;8.05;;;20.20;60.40;;;;;;5014344;28;20529;-45